OIHH  Hamadan  Airport

Hamadan, Iran

Add Bookmark
ICAO OIHH
IATA HDM
Type Airport
Status Operational
Latitude
34° 52' 9" N
34.869202
Longitude
48° 33' 9" E
48.552502
Local (DST + 5) UTC (GMT + 4)
Apr 25, 2015 10:43 Apr 25, 2015 18:13
Sunrise-Sunset Local UTC
Begin Civil Twilight 06:03 01:33
Sunrise 06:30 02:00
Sunset 07:57 15:27
End Civil Twilight 08:23 15:53
VFR
VFR
MVFR
MVFR
IFR
VFR
LIFR
VFR
Unknown
Unavailable

Current Weather

METAR Observed VFR
OIHH 251354Z 28014KT 9999 SCT040 15/M09 Q1020 Sat, Apr 25, 2015 @ 13:54 UTC
(4 Hours, 19 Minutes ago)
Visual Flight Rules
Wind Visibility Clouds Conditions
280° at 14 knots (26 kph) 10 km or more
  • Scattered at 4,000 ft AGL
  • No significant weather
Temperatures Readings Precipitation
Current Temp
15°C
59°F
Dewpoint
-9°C
16°F
Humidity 18%
Altimeter 30.12" Hg
Sea Level Pressure 1,020 mb
Field Elevation
1,757 m
5,764 ft
None Recorded

Additional weather within a 92.6km radius of OIHH

Map ICAO Location
OIHM 69.5km S/SE (160°)
VFR
VFR
MVFR
MVFR
IFR
VFR
LIFR
VFR
Unknown
Unavailable
-
-

CheckWX.com is intended as a tool to help pilots better visualize weather data. It is not intended as a substitute for an official weather briefing obtained from a Flight Service Station. CheckWX.com does not meet the FAA requirements for an official pre-flight weather briefing. Therefore, it's important that pilots still call and obtain an official FSS pre-flight weather briefing.

© 2007-2015 CheckWX.com
18:13:49 UTC